createdAt,value
2023-03-04T00:00:29.305Z,3.90
2023-03-04T00:02:57.720Z,2.40
2023-03-04T00:05:28.195Z,2.10
2023-03-04T00:07:57.300Z,1.80
2023-03-04T00:10:26.258Z,2.30
2023-03-04T00:12:55.045Z,2.80
2023-03-04T00:15:25.067Z,2.30
2023-03-04T00:17:56.167Z,2.10
2023-03-04T00:20:24.407Z,2.10
2023-03-04T00:22:52.955Z,2.60
2023-03-04T00:25:21.568Z,2.10
2023-03-04T00:27:50.818Z,1.70
2023-03-04T00:30:19.487Z,2.10
2023-03-04T00:32:49.922Z,2.20
2023-03-04T00:35:18.681Z,2.10
2023-03-04T00:37:47.531Z,2.80
2023-03-04T00:40:15.937Z,2.00
2023-03-04T00:42:44.273Z,1.80
2023-03-04T00:45:13.552Z,2.30
2023-03-04T00:47:44.461Z,1.60
2023-03-04T00:50:16.795Z,2.00
2023-03-04T00:52:45.262Z,1.90
2023-03-04T00:55:14.190Z,1.70
2023-03-04T01:00:26.762Z,2.10
2023-03-04T01:03:17.888Z,2.00
2023-03-04T01:05:47.825Z,1.90
2023-03-04T01:08:17.172Z,2.00
2023-03-04T01:10:46.687Z,1.90
2023-03-04T01:13:15.285Z,2.00
2023-03-04T01:15:44.089Z,2.00
2023-03-04T01:18:12.973Z,2.10
2023-03-04T01:20:43.000Z,1.60
2023-03-04T01:23:12.894Z,2.60
2023-03-04T01:25:44.740Z,1.90
2023-03-04T01:28:13.155Z,1.60
2023-03-04T01:30:43.304Z,1.80
2023-03-04T01:33:11.694Z,1.80
2023-03-04T01:35:40.661Z,1.80
2023-03-04T01:38:09.083Z,1.50
2023-03-04T01:40:40.090Z,1.70
2023-03-04T01:43:08.178Z,1.70
2023-03-04T01:45:39.748Z,1.80
2023-03-04T01:48:11.269Z,2.10
2023-03-04T01:50:40.152Z,1.50
2023-03-04T01:53:08.394Z,1.60
2023-03-04T01:55:38.911Z,1.60
2023-03-04T01:58:11.097Z,0.50
2023-03-04T02:00:39.707Z,1.50
2023-03-04T02:03:11.470Z,1.70
2023-03-04T02:05:42.170Z,1.60
2023-03-04T02:08:11.736Z,1.50
2023-03-04T02:10:43.686Z,1.50
2023-03-04T02:13:12.878Z,1.40
2023-03-04T02:15:41.389Z,2.80
2023-03-04T02:18:17.197Z,1.50
2023-03-04T02:20:54.109Z,1.50
2023-03-04T02:23:27.212Z,1.30
2023-03-04T02:26:15.877Z,1.70
2023-03-04T02:28:44.729Z,1.60
2023-03-04T02:31:23.537Z,1.40
2023-03-04T02:33:53.029Z,1.40
2023-03-04T02:36:21.868Z,0.70
2023-03-04T02:38:51.309Z,1.10
2023-03-04T02:41:25.737Z,1.30
2023-03-04T02:43:56.308Z,1.40
2023-03-04T02:46:25.247Z,1.20
2023-03-04T02:48:54.062Z,1.20
2023-03-04T02:51:22.256Z,1.20
2023-03-04T02:53:50.657Z,1.30
2023-03-04T02:56:20.697Z,1.40
2023-03-04T02:58:48.986Z,1.20
2023-03-04T03:01:17.244Z,1.10
2023-03-04T03:03:45.502Z,1.20
2023-03-04T03:06:13.800Z,1.80
2023-03-04T03:08:41.928Z,1.20
2023-03-04T03:11:10.238Z,1.10
2023-03-04T03:13:40.606Z,1.00
2023-03-04T03:16:09.059Z,2.80
2023-03-04T03:18:37.169Z,1.10
2023-03-04T03:21:05.694Z,1.40
2023-03-04T03:23:34.107Z,1.10
2023-03-04T03:26:02.441Z,1.10
2023-03-04T03:28:30.831Z,1.00
2023-03-04T03:31:00.891Z,2.70
2023-03-04T03:33:30.412Z,1.00
2023-03-04T03:35:58.907Z,0.90
2023-03-04T03:38:27.659Z,0.80
2023-03-04T03:40:56.270Z,0.90
2023-03-04T03:43:24.816Z,0.90
2023-03-04T03:45:53.684Z,1.90
2023-03-04T03:48:23.663Z,0.90
2023-03-04T03:50:52.262Z,0.70
2023-03-04T03:53:20.712Z,0.90
2023-03-04T03:55:49.540Z,1.70
2023-03-04T03:58:17.959Z,3.30
2023-03-04T04:00:46.623Z,0.70
2023-03-04T04:03:17.898Z,0.90
2023-03-04T04:05:48.070Z,1.70
2023-03-04T04:08:16.690Z,0.50
2023-03-04T04:10:45.671Z,0.40
2023-03-04T04:13:13.915Z,0.60
2023-03-04T04:15:42.351Z,0.70
2023-03-04T04:18:11.234Z,0.70
2023-03-04T04:20:39.625Z,0.30
2023-03-04T04:23:09.240Z,0.90
2023-03-04T04:25:37.698Z,1.30
2023-03-04T04:28:06.576Z,0.50
2023-03-04T04:30:34.877Z,0.90
2023-03-04T04:33:05.036Z,-1.60
2023-03-04T04:38:02.610Z,0.70
2023-03-04T04:40:35.328Z,0.70
2023-03-04T04:43:03.833Z,0.80
2023-03-04T04:45:32.083Z,1.00
2023-03-04T04:48:00.306Z,1.80
2023-03-04T04:50:30.725Z,1.80
2023-03-04T04:53:00.113Z,0.70
2023-03-04T04:55:28.362Z,0.70
2023-03-04T04:57:58.296Z,0.80
2023-03-04T05:00:26.876Z,0.70
2023-03-04T05:02:55.199Z,1.30
2023-03-04T05:05:23.650Z,2.00
2023-03-04T05:07:51.888Z,0.20
2023-03-04T05:10:20.200Z,0.60
2023-03-04T05:12:48.584Z,0.60
2023-03-04T05:15:18.779Z,1.30
2023-03-04T05:17:47.368Z,1.80
2023-03-04T05:20:15.634Z,-0.50
2023-03-04T05:22:44.147Z,0.60
2023-03-04T05:25:12.380Z,0.30
2023-03-04T05:27:40.568Z,0.50
2023-03-04T05:30:10.472Z,0.40
2023-03-04T05:32:40.185Z,1.00
2023-03-04T05:35:09.079Z,0.60
2023-03-04T05:37:37.196Z,0.50
2023-03-04T05:40:06.158Z,0.60
2023-03-04T05:42:34.539Z,-1.20
2023-03-04T05:45:02.552Z,0.60
2023-03-04T05:47:30.749Z,2.60
2023-03-04T05:50:00.379Z,1.00
2023-03-04T05:52:28.848Z,0.50
2023-03-04T05:54:57.173Z,0.50
2023-03-04T05:57:25.411Z,0.40
2023-03-04T05:59:53.770Z,0.50
2023-03-04T06:02:24.792Z,0.50
2023-03-04T06:04:53.038Z,0.30
2023-03-04T06:07:22.578Z,0.50
2023-03-04T06:09:50.756Z,0.30
2023-03-04T06:12:18.927Z,0.40
2023-03-04T06:14:49.546Z,0.30
2023-03-04T06:17:18.336Z,0.40
2023-03-04T06:19:46.764Z,0.40
2023-03-04T06:22:15.097Z,0.40
2023-03-04T06:24:45.067Z,0.30
2023-03-04T06:27:13.900Z,0.40
2023-03-04T06:29:42.430Z,0.40
2023-03-04T06:32:10.944Z,0.50
2023-03-04T06:34:39.549Z,0.30
2023-03-04T06:37:07.648Z,0.80
2023-03-04T06:39:36.341Z,0.50
2023-03-04T06:42:05.967Z,0.70
2023-03-04T06:44:34.184Z,-0.20
2023-03-04T06:47:02.357Z,2.10
2023-03-04T06:49:30.456Z,0.50
2023-03-04T06:51:58.656Z,0.70
2023-03-04T06:54:26.874Z,0.70
2023-03-04T06:56:54.995Z,0.70
2023-03-04T06:59:24.876Z,0.80
2023-03-04T07:01:53.128Z,0.90
2023-03-04T07:04:22.857Z,1.40
2023-03-04T07:06:51.603Z,1.00
2023-03-04T07:09:20.135Z,1.00
2023-03-04T07:11:49.046Z,1.10
2023-03-04T07:14:17.544Z,1.10
2023-03-04T07:16:47.312Z,1.30
2023-03-04T07:19:15.615Z,1.40
2023-03-04T07:21:43.720Z,2.30
2023-03-04T07:24:11.986Z,1.40
2023-03-04T07:26:40.652Z,2.30
2023-03-04T07:29:10.325Z,1.50
2023-03-04T07:31:39.634Z,1.70
2023-03-04T07:34:13.711Z,1.60
2023-03-04T07:36:42.710Z,1.70
2023-03-04T07:39:14.407Z,1.80
2023-03-04T07:41:44.528Z,1.70
2023-03-04T07:44:14.701Z,1.70
2023-03-04T07:46:43.224Z,1.80
2023-03-04T07:49:16.231Z,2.50
2023-03-04T07:51:44.478Z,1.90
2023-03-04T07:54:13.109Z,1.90
2023-03-04T07:56:43.299Z,2.00
2023-03-04T08:05:28.734Z,2.10
2023-03-04T08:08:17.436Z,2.10
2023-03-04T08:10:51.158Z,2.00
2023-03-04T08:13:23.870Z,1.80
2023-03-04T08:16:14.450Z,1.60
2023-03-04T08:18:45.235Z,2.00
2023-03-04T08:24:59.205Z,1.90
2023-03-04T08:27:27.444Z,2.00
2023-03-04T08:29:55.410Z,2.00
2023-03-04T08:32:23.922Z,1.80
2023-03-04T08:34:57.015Z,2.00
2023-03-04T08:37:30.384Z,2.10
2023-03-04T08:40:00.951Z,2.20
2023-03-04T08:42:30.675Z,2.20
2023-03-04T08:45:00.629Z,2.20
2023-03-04T08:47:32.768Z,2.00
2023-03-04T08:50:07.464Z,2.30
2023-03-04T08:52:36.479Z,2.30
2023-03-04T08:55:10.473Z,2.40
2023-03-04T08:57:39.464Z,2.50
2023-03-04T09:00:11.673Z,2.50
2023-03-04T09:02:42.146Z,2.50
2023-03-04T09:05:12.434Z,2.50
2023-03-04T09:07:44.748Z,2.60
2023-03-04T09:10:15.892Z,2.60
2023-03-04T09:12:45.393Z,2.60
2023-03-04T09:15:16.318Z,2.70
2023-03-04T09:17:47.110Z,2.80
2023-03-04T09:20:16.176Z,2.80
2023-03-04T09:22:47.571Z,3.00
2023-03-04T09:28:04.611Z,3.00
2023-03-04T09:30:34.885Z,3.20
2023-03-04T09:33:03.597Z,3.30
2023-03-04T09:35:32.629Z,3.30
2023-03-04T09:38:01.468Z,1.70
2023-03-04T09:40:37.005Z,2.70
2023-03-04T09:43:20.621Z,4.20
2023-03-04T09:45:53.189Z,3.00
2023-03-04T09:48:26.362Z,3.60
2023-03-04T09:51:08.148Z,3.60
2023-03-04T09:53:47.110Z,3.70
2023-03-04T09:56:18.581Z,3.70
2023-03-04T09:58:57.858Z,3.60
2023-03-04T10:01:32.494Z,4.80
2023-03-04T10:04:06.555Z,3.80
2023-03-04T10:06:38.414Z,3.90
2023-03-04T10:09:15.192Z,3.90
2023-03-04T10:14:53.023Z,4.00
2023-03-04T10:17:24.915Z,3.90
2023-03-04T10:19:58.258Z,3.30
2023-03-04T10:25:27.830Z,7.60
2023-03-04T10:28:00.518Z,4.40
2023-03-04T10:30:44.857Z,4.50
2023-03-04T10:48:46.097Z,4.80
2023-03-04T10:51:33.428Z,5.00
2023-03-04T11:00:20.004Z,5.30
2023-03-04T11:02:55.926Z,5.30
2023-03-04T11:05:26.972Z,5.30
2023-03-04T11:07:57.726Z,5.30
2023-03-04T11:10:52.454Z,5.30
2023-03-04T11:13:23.244Z,5.30
2023-03-04T11:15:56.202Z,5.50
2023-03-04T11:18:33.901Z,5.50
2023-03-04T11:21:04.155Z,5.30
2023-03-04T11:23:42.405Z,5.40
2023-03-04T11:26:17.547Z,5.50
2023-03-04T11:31:24.270Z,5.50
2023-03-04T11:33:58.347Z,5.50
2023-03-04T11:36:37.793Z,5.50
2023-03-04T11:39:15.282Z,5.40
2023-03-04T11:44:25.463Z,5.50
2023-03-04T11:47:13.015Z,5.50
2023-03-04T11:50:09.170Z,5.60
2023-03-04T11:52:58.325Z,5.50
2023-03-04T11:55:35.971Z,5.60
2023-03-04T12:03:29.762Z,5.80
2023-03-04T12:06:06.324Z,5.90
2023-03-04T12:09:04.681Z,5.90
2023-03-04T12:20:27.513Z,6.20
2023-03-04T12:23:06.532Z,6.30
2023-03-04T12:25:46.017Z,6.60
2023-03-04T12:28:41.303Z,6.70
2023-03-04T12:36:34.899Z,7.00
2023-03-04T12:39:17.308Z,7.20
2023-03-04T12:42:01.370Z,7.20
2023-03-04T12:44:35.404Z,6.80
2023-03-04T13:43:18.342Z,6.90
2023-03-04T13:45:49.685Z,6.90
2023-03-04T13:48:31.133Z,6.40
2023-03-04T13:51:00.264Z,6.90
2023-03-04T13:53:48.496Z,7.00
2023-03-04T13:56:35.293Z,7.30
2023-03-04T13:59:23.254Z,7.40
2023-03-04T14:02:19.843Z,7.00
2023-03-04T14:04:58.577Z,8.30
2023-03-04T14:07:31.698Z,6.50
2023-03-04T14:10:18.661Z,6.80
2023-03-04T14:15:47.327Z,7.60
2023-03-04T14:18:17.482Z,7.60
2023-03-04T14:20:53.029Z,7.40
2023-03-04T14:23:28.013Z,7.70
2023-03-04T14:26:12.188Z,7.70
2023-03-04T14:28:49.694Z,7.60
2023-03-04T14:35:00.693Z,9.50
2023-03-04T14:37:39.453Z,8.80
2023-03-04T14:40:09.435Z,8.40
2023-03-04T14:42:47.111Z,8.50
2023-03-04T14:45:18.486Z,8.90
2023-03-04T14:47:48.738Z,9.20
2023-03-04T14:50:21.582Z,9.20
2023-03-04T14:52:52.333Z,9.00
2023-03-04T14:55:25.581Z,8.80
2023-03-04T14:57:58.705Z,9.50
2023-03-04T15:00:33.112Z,7.90
2023-03-04T15:03:04.578Z,7.90
2023-03-04T15:05:36.998Z,7.80
2023-03-04T15:08:07.690Z,7.80
2023-03-04T15:10:38.944Z,7.30
2023-03-04T15:13:09.785Z,7.00
2023-03-04T15:15:41.682Z,7.20
2023-03-04T15:18:27.004Z,7.20
2023-03-04T15:24:14.604Z,8.30
2023-03-04T15:26:46.192Z,7.20
2023-03-04T15:29:17.262Z,6.90
2023-03-04T15:31:48.482Z,6.90
2023-03-04T15:34:21.347Z,7.00
2023-03-04T15:36:52.436Z,6.60
2023-03-04T15:39:23.482Z,6.40
2023-03-04T15:41:52.217Z,6.50
2023-03-04T15:44:20.983Z,6.90
2023-03-04T15:46:49.885Z,6.50
2023-03-04T15:49:18.673Z,6.60
2023-03-04T15:51:51.408Z,5.90
2023-03-04T15:54:23.635Z,5.50
2023-03-04T15:56:51.959Z,5.50
2023-03-04T15:59:20.743Z,5.50
2023-03-04T16:01:49.129Z,5.40
2023-03-04T16:04:18.884Z,3.70
2023-03-04T16:06:50.509Z,4.90
2023-03-04T16:09:42.442Z,6.00
2023-03-04T16:12:14.071Z,3.90
2023-03-04T16:14:44.524Z,3.80
2023-03-04T16:17:13.438Z,3.70
2023-03-04T16:19:41.944Z,3.70
2023-03-04T16:22:11.684Z,3.60
2023-03-04T16:24:40.296Z,3.50
2023-03-04T16:27:14.348Z,3.30
2023-03-04T16:29:43.378Z,3.30
2023-03-04T16:32:12.871Z,3.10
2023-03-04T16:34:42.012Z,4.30
2023-03-04T16:37:19.386Z,2.80
2023-03-04T16:39:49.792Z,3.10
2023-03-04T16:42:41.823Z,2.80
2023-03-04T16:45:18.365Z,2.70
2023-03-04T16:47:52.473Z,2.50
2023-03-04T16:50:28.497Z,2.50
2023-03-04T16:52:58.897Z,2.20
2023-03-04T16:55:30.652Z,2.00
2023-03-04T16:58:05.493Z,1.90
2023-03-04T17:00:36.138Z,1.80
2023-03-04T17:03:17.309Z,2.00
2023-03-04T17:05:59.949Z,1.60
2023-03-04T17:08:29.873Z,1.50
2023-03-04T17:10:58.361Z,1.60
2023-03-04T17:13:27.817Z,1.60
2023-03-04T17:16:00.848Z,1.50
2023-03-04T17:18:28.859Z,1.40
2023-03-04T17:21:04.465Z,1.20
2023-03-04T17:23:32.640Z,2.80
2023-03-04T17:26:00.850Z,1.60
2023-03-04T17:28:30.967Z,1.80
2023-03-04T17:33:28.268Z,1.30
2023-03-04T17:35:57.852Z,1.10
2023-03-04T17:40:57.549Z,1.10
2023-03-04T17:46:04.477Z,0.90
2023-03-04T17:48:32.854Z,1.00
2023-03-04T17:51:04.576Z,0.90
2023-03-04T17:56:03.665Z,0.10
2023-03-04T17:58:35.616Z,0.90
2023-03-04T18:01:09.425Z,0.90
2023-03-04T18:03:37.599Z,1.00
2023-03-04T18:06:06.217Z,0.90
2023-03-04T18:08:34.512Z,1.00
2023-03-04T18:11:02.648Z,1.00
2023-03-04T18:13:31.242Z,1.10
2023-03-04T18:16:02.758Z,0.90
2023-03-04T18:18:32.480Z,1.20
2023-03-04T18:21:01.369Z,1.10
2023-03-04T18:23:30.105Z,1.40
2023-03-04T18:25:58.761Z,0.40
2023-03-04T18:28:27.278Z,-0.10
2023-03-04T18:30:57.053Z,0.90
2023-03-04T18:33:26.095Z,0.80
2023-03-04T18:36:00.559Z,0.70
2023-03-04T18:38:29.872Z,0.70
2023-03-04T18:49:42.524Z,0.50
2023-03-04T18:52:13.300Z,0.50
2023-03-04T18:54:42.999Z,0.50
2023-03-04T18:57:14.762Z,0.60
2023-03-04T18:59:48.188Z,0.70
2023-03-04T19:04:51.712Z,0.60
2023-03-04T19:07:21.688Z,0.60
2023-03-04T19:09:50.131Z,0.60
2023-03-04T19:14:49.598Z,0.50
2023-03-04T19:17:18.828Z,0.40
2023-03-04T19:19:47.452Z,0.50
2023-03-04T19:22:17.717Z,0.20
2023-03-04T19:24:48.501Z,0.70
2023-03-04T19:27:23.247Z,0.40
2023-03-04T19:30:13.995Z,0.40
2023-03-04T19:32:49.396Z,0.40
2023-03-04T19:35:19.907Z,0.40
2023-03-04T19:48:06.114Z,0.60
2023-03-04T19:50:56.774Z,0.50
2023-03-04T19:59:54.188Z,0.30
2023-03-04T20:06:12.259Z,0.60
2023-03-04T20:08:59.386Z,0.40
2023-03-04T20:14:14.698Z,0.30
2023-03-04T20:16:46.925Z,0.30
2023-03-04T20:19:17.525Z,0.10
2023-03-04T20:21:48.220Z,0.20
2023-03-04T20:24:26.985Z,0.30
2023-03-04T20:29:28.978Z,0.30
2023-03-04T20:49:56.864Z,0.40
2023-03-04T21:07:48.997Z,0.50
2023-03-04T21:15:17.401Z,0.40
2023-03-04T21:20:16.948Z,0.40
2023-03-04T21:25:14.714Z,0.40
2023-03-04T21:27:44.674Z,0.40
2023-03-04T21:30:13.819Z,0.40
2023-03-04T21:32:42.570Z,0.40
2023-03-04T21:35:15.345Z,0.30
2023-03-04T21:37:43.726Z,0.30
2023-03-04T21:40:13.603Z,0.40
2023-03-04T21:42:43.982Z,0.40
2023-03-04T21:45:13.435Z,0.40
2023-03-04T21:47:41.776Z,0.20
2023-03-04T21:50:10.794Z,0.50
2023-03-04T21:52:39.064Z,0.40
2023-03-04T21:57:39.264Z,0.60
2023-03-04T22:00:10.806Z,0.30
2023-03-04T22:02:38.945Z,0.40
2023-03-04T22:05:07.764Z,0.30
2023-03-04T22:07:36.201Z,0.40
2023-03-04T22:10:06.708Z,0.30
2023-03-04T22:12:36.944Z,-1.80
2023-03-04T22:15:05.544Z,0.40
2023-03-04T22:17:37.648Z,0.40
2023-03-04T22:25:10.318Z,0.40
2023-03-04T22:30:18.534Z,0.40
2023-03-04T22:35:32.773Z,0.50
2023-03-04T22:38:03.966Z,0.60
2023-03-04T22:48:15.729Z,0.60
2023-03-04T22:50:44.184Z,0.60
2023-03-04T22:53:12.684Z,0.30
2023-03-04T22:55:43.544Z,0.50
2023-03-04T22:58:11.979Z,0.50
2023-03-04T23:00:41.066Z,0.50
2023-03-04T23:03:10.750Z,0.40
2023-03-04T23:05:40.654Z,0.50
2023-03-04T23:10:44.462Z,0.40
2023-03-04T23:13:18.035Z,2.40
2023-03-04T23:15:49.015Z,1.20
2023-03-04T23:18:18.269Z,0.20
2023-03-04T23:20:49.548Z,0.40
2023-03-04T23:25:52.177Z,0.40
2023-03-04T23:28:23.527Z,0.40
2023-03-04T23:30:51.886Z,0.30
2023-03-04T23:33:20.102Z,0.40
2023-03-04T23:35:50.071Z,0.20
2023-03-04T23:38:24.538Z,-0.60
2023-03-04T23:45:56.559Z,0.40
2023-03-04T23:50:56.516Z,0.20
2023-03-04T23:55:53.404Z,0.40
2023-03-04T23:58:21.662Z,-2.00
